Time;durP1;ratioP1;P1;durP2;ratioP2;P2;SDS_P1;SDS_P2;PMS_P1;PMS_P2;Temp;Humidity;BMP_temperature;BMP_pressure;BME280_temperature;BME280_humidity;BME280_pressure;Samples;Min_cycle;Max_cycle;Signal;HPM_P1;HPM_P2
2024/01/21 00:01:14;;;;;;;12.43;11.10;;;-5.50;99.90;;;-5.09;99.94;99115.06;10412321;28;20263;-62
2024/01/21 00:06:17;;;;;;;13.43;11.20;;;-5.50;99.90;;;-5.05;100.00;99113.19;10408847;28;20245;-62
2024/01/21 00:11:21;;;;;;;13.87;10.07;;;-5.50;99.90;;;-5.00;100.00;99117.19;10419413;28;20229;-61
2024/01/21 00:16:25;;;;;;;11.23;9.87;;;-5.50;99.90;;;-5.15;100.00;99109.22;10416649;28;20229;-62
2024/01/21 00:21:28;;;;;;;10.43;9.33;;;-5.60;99.90;;;-5.11;100.00;99106.47;10421770;28;20225;-62
2024/01/21 00:26:32;;;;;;;10.83;8.77;;;-5.60;99.90;;;-5.11;100.00;99097.38;10418215;28;20232;-62
2024/01/21 00:31:36;;;;;;;9.60;8.57;;;-5.60;99.90;;;-5.23;100.00;99098.22;10422103;28;20229;-62
2024/01/21 00:36:39;;;;;;;9.97;8.67;;;-5.70;99.90;;;-5.22;100.00;99090.94;10419144;28;20635;-61
2024/01/21 00:41:43;;;;;;;11.57;9.07;;;-5.70;99.90;;;-5.22;100.00;99090.03;10423103;28;20240;-61
2024/01/21 00:47:03;;;;;;;10.73;9.43;;;-5.70;99.90;;;-5.16;100.00;99080.91;10413966;28;20283;-60
2024/01/21 00:52:07;;;;;;;10.73;9.53;;;-5.70;99.90;;;-5.16;99.77;99077.53;10418003;28;20624;-60
2024/01/21 00:57:12;;;;;;;20.33;11.20;;;-5.70;99.90;;;-5.26;100.00;99090.31;10419643;28;20229;-61
2024/01/21 01:02:15;;;;;;;12.77;9.47;;;-5.90;99.90;;;-5.36;99.70;99079.78;10419627;28;20708;-62
2024/01/21 01:07:18;;;;;;;13.07;9.40;;;-5.90;99.90;;;-5.46;99.56;99086.00;10425950;28;20259;-61
2024/01/21 01:12:23;;;;;;;9.87;8.67;;;-5.90;99.90;;;-5.58;99.33;99094.28;10416562;28;20226;-62
2024/01/21 01:17:26;;;;;;;11.53;8.57;;;-6.00;99.90;;;-5.58;98.99;99098.34;10404941;28;20311;-60
2024/01/21 01:22:29;;;;;;;9.40;8.40;;;-6.10;99.90;;;-5.73;98.92;99095.53;10415871;28;20232;-61
2024/01/21 01:27:33;;;;;;;12.13;9.60;;;-6.20;99.90;;;-5.67;98.80;99092.97;10416668;28;20229;-61
2024/01/21 01:32:37;;;;;;;11.63;9.20;;;-6.20;99.90;;;-5.80;98.37;99095.38;10419212;28;20241;-61
2024/01/21 01:37:40;;;;;;;10.30;8.87;;;-6.20;99.90;;;-5.77;99.88;99100.78;10419863;28;20350;-62
2024/01/21 01:42:44;;;;;;;9.60;8.30;;;-6.20;99.90;;;-5.72;99.62;99104.81;10417866;28;20238;-62
2024/01/21 01:47:48;;;;;;;8.53;7.50;;;-6.20;99.90;;;-5.71;99.84;99108.19;10415048;28;20267;-61
2024/01/21 01:52:51;;;;;;;9.27;7.60;;;-6.10;99.90;;;-5.67;99.40;99102.94;10410327;28;20233;-62
2024/01/21 01:57:56;;;;;;;9.43;8.30;;;-6.20;99.90;;;-5.68;99.07;99112.00;10414340;28;20965;-62
2024/01/21 02:03:00;;;;;;;9.67;7.30;;;-6.10;99.90;;;-5.84;97.39;99102.19;10419571;28;20225;-60
2024/01/21 02:08:04;;;;;;;8.43;7.20;;;-6.30;99.90;;;-5.79;98.51;99097.16;10416927;28;20245;-59
2024/01/21 02:13:08;;;;;;;8.37;7.47;;;-6.30;99.90;;;-5.72;97.92;99098.94;10409705;28;20345;-60
2024/01/21 02:18:12;;;;;;;6.93;6.33;;;-6.30;99.90;;;-5.84;96.97;99092.22;10421171;28;20240;-61
2024/01/21 02:23:16;;;;;;;6.87;6.27;;;-6.40;99.90;;;-6.07;97.13;99084.09;10422409;28;20229;-60
2024/01/21 02:28:19;;;;;;;7.37;6.57;;;-6.50;99.90;;;-6.17;95.70;99071.97;10411106;28;20243;-59
2024/01/21 02:33:22;;;;;;;6.00;5.40;;;-6.70;99.90;;;-6.38;97.05;99057.41;10413700;28;20232;-59
2024/01/21 02:38:27;;;;;;;6.60;6.00;;;-6.80;99.90;;;-6.37;98.27;99046.78;10416578;28;20743;-59
2024/01/21 02:43:30;;;;;;;7.10;6.37;;;-6.80;99.90;;;-6.37;98.32;99045.19;10416643;28;20228;-61
2024/01/21 02:48:33;;;;;;;6.33;5.83;;;-6.70;99.90;;;-6.27;98.34;99029.97;10411195;28;20220;-60
2024/01/21 02:53:38;;;;;;;6.00;5.40;;;-6.60;99.90;;;-6.14;98.75;99035.97;10417670;28;20328;-60
2024/01/21 02:58:41;;;;;;;7.53;6.83;;;-6.60;99.90;;;-5.92;96.45;99028.97;10412568;28;20228;-61
2024/01/21 03:03:44;;;;;;;6.40;5.53;;;-6.50;99.90;;;-6.19;97.05;99024.47;10411358;28;20233;-61
2024/01/21 03:08:49;;;;;;;6.63;5.70;;;-6.50;99.90;;;-6.11;98.23;99025.56;10414980;28;20646;-60
2024/01/21 03:13:53;;;;;;;6.63;6.03;;;-6.50;99.90;;;-5.86;97.09;99023.94;10416591;28;20312;-60
2024/01/21 03:18:56;;;;;;;5.70;5.17;;;-6.30;99.90;;;-5.89;98.99;99024.41;10411446;28;20232;-61
2024/01/21 03:24:00;;;;;;;5.30;4.80;;;-6.30;99.90;;;-5.95;98.42;99004.59;10413337;28;20272;-59
2024/01/21 03:29:04;;;;;;;6.10;5.60;;;-6.30;99.90;;;-5.90;97.47;99008.56;10408683;28;20614;-60
2024/01/21 03:34:07;;;;;;;6.97;6.37;;;-6.30;99.90;;;-5.96;99.08;99002.78;10410672;28;20239;-59
2024/01/21 03:39:12;;;;;;;6.97;6.27;;;-6.40;99.90;;;-5.93;100.00;99013.13;10413338;28;20244;-59
2024/01/21 03:44:15;;;;;;;7.90;7.10;;;-6.30;99.90;;;-5.89;99.21;99012.88;10417875;28;20224;-60
2024/01/21 03:49:18;;;;;;;7.63;6.83;;;-6.30;99.90;;;-5.75;99.62;99008.88;10412624;28;20332;-59
2024/01/21 03:54:23;;;;;;;7.53;6.77;;;-6.20;99.90;;;-6.03;97.73;99000.16;10410825;28;20316;-62
2024/01/21 03:59:26;;;;;;;6.97;6.17;;;-6.40;99.90;;;-5.95;99.11;98993.72;10410242;28;20727;-61
2024/01/21 04:04:30;;;;;;;7.33;5.87;;;-6.30;99.90;;;-5.85;99.94;98993.38;10410191;28;20214;-61
2024/01/21 04:09:34;;;;;;;8.73;6.60;;;-6.20;99.90;;;-5.69;97.99;98990.72;10411830;28;20224;-60
2024/01/21 04:14:39;;;;;;;7.20;6.57;;;-6.10;99.90;;;-5.98;97.49;98998.28;10411289;28;20228;-62
2024/01/21 04:19:42;;;;;;;6.50;5.83;;;-6.30;99.90;;;-6.03;97.40;98996.75;10407564;28;20444;-58
2024/01/21 04:24:47;;;;;;;6.67;5.83;;;-6.40;99.90;;;-5.97;98.71;98991.03;10410030;28;20225;-62
2024/01/21 04:29:51;;;;;;;7.20;6.33;;;-6.40;99.90;;;-5.83;98.54;98979.56;10407859;28;20428;-59
2024/01/21 04:34:55;;;;;;;6.60;6.00;;;-6.30;99.90;;;-5.85;99.73;98978.44;10406136;28;20243;-60
2024/01/21 04:39:59;;;;;;;6.93;6.33;;;-6.20;99.90;;;-5.71;100.00;98971.28;10411781;28;20325;-61
2024/01/21 04:45:03;;;;;;;7.50;6.80;;;-6.20;99.90;;;-5.74;98.54;98971.75;10415642;28;20307;-60
2024/01/21 04:50:10;;;;;;;7.50;6.80;;;-6.20;99.90;;;-5.70;99.75;98973.06;10405928;28;20233;-59
2024/01/21 04:55:15;;;;;;;7.17;6.23;;;-6.20;99.90;;;-5.70;98.88;98963.09;10411659;28;20229;-60
2024/01/21 05:00:19;;;;;;;8.77;7.13;;;-6.20;99.90;;;-5.84;97.98;98966.19;10418611;28;20245;-59
2024/01/21 05:05:22;;;;;;;7.20;6.50;;;-6.30;99.90;;;-5.80;98.47;98962.56;10426469;28;20222;-61
2024/01/21 05:10:27;;;;;;;6.77;6.17;;;-6.30;99.90;;;-5.70;99.03;98959.03;10409695;28;20326;-60
2024/01/21 05:15:30;;;;;;;6.50;6.00;;;-6.20;99.90;;;-5.75;99.87;98951.63;10420060;28;20630;-60
2024/01/21 05:20:33;;;;;;;7.50;6.23;;;-6.20;99.90;;;-5.75;99.12;98949.13;10412778;28;20225;-61
2024/01/21 05:25:38;;;;;;;7.07;6.40;;;-6.20;99.90;;;-5.79;98.66;98946.91;10410319;28;20342;-59
2024/01/21 05:30:41;;;;;;;7.90;7.10;;;-6.20;99.90;;;-5.71;99.14;98946.38;10412380;28;20226;-61
2024/01/21 05:35:44;;;;;;;8.07;7.33;;;-6.20;99.90;;;-5.63;98.82;98953.31;10413219;28;20249;-61
2024/01/21 05:40:49;;;;;;;6.83;6.23;;;-6.10;99.90;;;-5.60;97.77;98968.66;10413603;28;20221;-60
2024/01/21 05:45:52;;;;;;;7.50;6.50;;;-6.20;99.90;;;-5.81;98.40;98989.00;10414103;28;20243;-58
2024/01/21 05:50:55;;;;;;;8.87;7.90;;;-6.30;99.90;;;-5.79;98.19;99000.09;10411877;28;20225;-61
2024/01/21 05:56:00;;;;;;;17.53;11.53;;;-6.30;99.90;;;-6.01;97.79;98992.88;10412537;28;20225;-60
2024/01/21 06:01:06;;;;;;;14.50;9.47;;;-6.40;99.90;;;-5.85;99.46;99003.34;10426521;22;20221;-67
2024/01/21 06:06:09;;;;;;;9.13;8.23;;;-6.30;99.90;;;-5.90;100.00;99018.50;10397225;28;20254;-65
2024/01/21 06:11:14;;;;;;;9.87;8.33;;;-6.20;99.90;;;-5.66;100.00;99026.00;10404239;28;20344;-65
2024/01/21 06:16:17;;;;;;;15.87;11.63;;;-6.10;99.90;;;-5.54;99.67;99034.22;10438001;28;20311;-65
2024/01/21 06:21:21;;;;;;;13.40;9.97;;;-6.00;99.90;;;-5.61;99.39;99038.16;10440814;28;20316;-65
2024/01/21 06:26:26;;;;;;;12.30;9.53;;;-6.10;99.90;;;-5.67;99.40;99048.16;10437440;28;20247;-64
2024/01/21 06:31:29;;;;;;;9.93;8.93;;;-6.10;99.90;;;-5.64;98.83;99045.19;10439127;28;20236;-65
2024/01/21 06:36:33;;;;;;;11.10;8.70;;;-6.10;99.90;;;-5.59;99.93;99037.69;10434693;28;20647;-65
2024/01/21 06:41:38;;;;;;;9.37;8.40;;;-6.00;99.90;;;-5.60;100.00;99045.84;10435090;28;20667;-64
2024/01/21 06:46:42;;;;;;;10.10;8.97;;;-6.00;99.90;;;-5.55;99.83;99049.88;10436267;28;20622;-65
2024/01/21 06:51:46;;;;;;;10.17;8.97;;;-6.00;99.90;;;-5.45;100.00;99060.38;10436850;28;20225;-65
2024/01/21 06:56:52;;;;;;;9.20;8.10;;;-6.00;99.90;;;-5.55;98.45;99061.41;10430666;28;20311;-68
2024/01/21 07:01:55;;;;;;;9.03;8.20;;;-6.00;99.90;;;-5.54;100.00;99065.72;10431669;28;20260;-65
2024/01/21 07:06:58;;;;;;;9.83;8.67;;;-6.00;99.90;;;-5.51;100.00;99074.50;10435478;28;20217;-65
2024/01/21 07:12:04;;;;;;;9.43;8.53;;;-6.00;99.90;;;-5.50;99.23;99068.81;10440218;28;20263;-64
2024/01/21 07:17:07;;;;;;;10.43;9.30;;;-6.00;99.90;;;-5.56;97.68;99077.94;10420739;28;20224;-65
2024/01/21 07:22:11;;;;;;;9.67;8.67;;;-6.10;99.90;;;-5.52;98.73;99075.19;10441709;28;20347;-65
2024/01/21 07:27:15;;;;;;;11.07;9.40;;;-6.10;99.90;;;-5.55;99.25;99064.81;10438603;28;20856;-65
2024/01/21 07:32:19;;;;;;;10.03;8.93;;;-6.00;99.90;;;-5.37;99.87;99068.03;10435193;28;20228;-66
2024/01/21 07:37:22;;;;;;;11.10;10.00;;;-5.90;99.90;;;-5.24;99.34;99071.47;10437599;28;20230;-66
2024/01/21 07:42:26;;;;;;;18.60;14.57;;;-5.70;99.90;;;-4.89;100.00;99066.31;10432328;28;20229;-66
2024/01/21 07:47:29;;;;;;;49.50;31.10;;;-5.40;99.90;;;-4.68;99.69;99063.31;10430671;28;20248;-66
2024/01/21 07:52:33;;;;;;;17.07;12.53;;;-5.20;99.90;;;-4.54;98.37;99068.56;10439236;28;20703;-66
2024/01/21 07:57:37;;;;;;;10.23;8.73;;;-5.10;99.90;;;-4.34;98.24;99082.78;10439540;28;20778;-66
2024/01/21 08:02:41;;;;;;;9.03;8.13;;;-4.90;99.90;;;-4.23;97.14;99075.16;10436597;28;20224;-66
2024/01/21 08:07:44;;;;;;;8.63;7.80;;;-4.80;99.90;;;-3.93;97.55;99067.41;10434886;28;20239;-66
2024/01/21 08:12:48;;;;;;;14.33;11.37;;;-4.50;99.90;;;-3.67;96.38;99055.81;10438195;28;20226;-66
2024/01/21 08:17:52;;;;;;;21.27;12.47;;;-4.40;99.90;;;-3.60;95.99;99062.53;10438467;28;20225;-66
2024/01/21 08:22:56;;;;;;;39.00;19.60;;;-4.30;99.90;;;-3.84;94.81;99061.09;10433914;28;20217;-66
2024/01/21 08:28:00;;;;;;;33.70;19.23;;;-4.40;99.90;;;-3.41;96.89;99059.22;10433175;28;20225;-67
2024/01/21 08:33:04;;;;;;;23.40;18.07;;;-4.00;99.90;;;-3.20;95.63;99033.59;10421118;28;20815;-66
2024/01/21 08:38:07;;;;;;;17.77;14.40;;;-3.90;99.90;;;-3.13;94.44;99035.28;10440136;28;20229;-66
2024/01/21 08:43:12;;;;;;;15.67;13.37;;;-3.70;99.90;;;-3.09;95.15;99058.38;10439006;28;20243;-66
2024/01/21 08:48:15;;;;;;;16.80;15.30;;;-3.60;99.90;;;-2.72;97.11;99073.97;10437444;28;20586;-66
2024/01/21 08:53:20;;;;;;;17.57;15.70;;;-3.20;99.90;;;-2.07;95.72;99072.94;10441360;28;20736;-66
2024/01/21 08:58:25;;;;;;;16.00;14.40;;;-2.80;99.90;;;-1.94;91.03;99072.00;10442462;28;20604;-66
2024/01/21 09:03:28;;;;;;;14.03;12.63;;;-2.70;99.90;;;-1.92;91.98;99073.94;10438231;28;20257;-65
2024/01/21 09:08:31;;;;;;;13.83;12.53;;;-2.60;99.90;;;-1.75;92.43;99080.16;10446848;28;20221;-65
2024/01/21 09:13:36;;;;;;;11.17;10.07;;;-2.50;99.90;;;-1.61;92.87;99067.72;10446483;28;20239;-65
2024/01/21 09:18:39;;;;;;;11.53;10.33;;;-2.30;99.90;;;-1.73;89.75;99071.22;10445309;28;20225;-65
2024/01/21 09:23:42;;;;;;;10.43;9.43;;;-2.40;99.90;;;-1.64;90.58;99087.41;10451529;28;20283;-64
2024/01/21 09:28:47;;;;;;;11.47;10.27;;;-2.30;99.90;;;-1.28;90.47;99075.09;10447303;28;20270;-65
2024/01/21 09:33:50;;;;;;;11.63;10.43;;;-2.00;99.90;;;-1.30;88.02;99084.03;10440044;28;20424;-65
2024/01/21 09:38:54;;;;;;;12.30;11.20;;;-1.90;99.90;;;-1.48;88.30;99077.66;10435270;28;20320;-65
2024/01/21 09:44:00;;;;;;;14.07;11.10;;;-2.10;99.90;;;-1.51;90.32;99094.84;10444427;28;20225;-65
2024/01/21 09:49:05;;;;;;;14.60;13.10;;;-2.00;99.90;;;-1.28;92.15;99082.59;10441063;28;20226;-64
2024/01/21 09:54:08;;;;;;;16.70;14.90;;;-1.80;99.90;;;-1.15;92.89;99089.28;10437092;28;20258;-65
2024/01/21 09:59:14;;;;;;;16.03;14.40;;;-1.60;99.90;;;-0.91;92.36;99076.31;10440338;28;20230;-65
2024/01/21 10:04:19;;;;;;;18.37;16.20;;;-1.50;99.90;;;-0.98;91.02;99080.41;10436732;28;20237;-65
2024/01/21 10:09:23;;;;;;;24.47;19.03;;;-1.50;99.90;;;-0.88;90.85;99074.91;10440413;28;20220;-64
2024/01/21 10:14:29;;;;;;;17.87;15.83;;;-1.50;99.90;;;-0.76;91.86;99078.88;10440022;28;20698;-65
2024/01/21 10:19:34;;;;;;;17.00;15.43;;;-1.30;99.90;;;-0.79;89.34;99081.00;10444307;28;20687;-65
2024/01/21 10:24:38;;;;;;;17.37;15.57;;;-1.20;99.90;;;-0.54;90.50;99073.19;10440248;28;20234;-65
2024/01/21 10:29:45;;;;;;;19.57;17.47;;;-1.10;99.90;;;-0.34;90.81;99069.63;10441272;28;20507;-65
2024/01/21 10:34:52;;;;;;;17.70;15.53;;;-0.90;99.90;;;-0.20;88.96;99072.16;10439155;28;20585;-65
2024/01/21 10:39:56;;;;;;;18.80;16.80;;;-0.90;99.90;;;-0.11;89.51;99075.75;10439894;28;20586;-65
2024/01/21 10:45:02;;;;;;;22.70;18.53;;;-0.70;99.90;;;-0.16;88.67;99074.31;10439927;28;20233;-65
2024/01/21 10:50:08;;;;;;;18.30;16.40;;;-0.70;99.90;;;-0.06;87.93;99093.84;10439445;28;20224;-65
2024/01/21 10:55:11;;;;;;;34.53;23.40;;;-0.60;99.90;;;0.10;89.19;99101.59;10443540;28;20233;-65
2024/01/21 11:00:18;;;;;;;35.37;23.53;;;-0.50;99.90;;;0.25;90.05;99102.47;10442831;28;21987;-65
2024/01/21 11:05:23;;;;;;;21.33;19.13;;;-0.40;99.90;;;0.39;90.80;99092.41;10434054;28;20239;-64
2024/01/21 11:10:30;;;;;;;21.57;18.87;;;-0.20;99.90;;;0.70;89.14;99043.13;10438960;28;20277;-65
2024/01/21 11:15:35;;;;;;;28.33;21.00;;;-0.10;99.90;;;0.49;89.75;99074.25;10437170;28;20239;-65
2024/01/21 11:20:40;;;;;;;23.03;18.80;;;-0.10;99.90;;;0.60;90.93;99079.81;10440531;28;20220;-65
2024/01/21 11:25:51;;;;;;;24.37;20.30;;;0.00;99.90;;;0.66;91.06;99077.09;10438264;28;20233;-65
2024/01/21 11:31:03;;;;;;;23.17;20.13;;;0.00;99.90;;;0.78;91.64;99086.03;10436350;28;20231;-65
2024/01/21 11:36:08;;;;;;;21.30;19.00;;;0.10;99.90;;;0.77;90.35;99094.28;10437723;28;20246;-65
2024/01/21 11:41:13;;;;;;;20.73;18.53;;;0.20;99.90;;;1.05;91.88;99097.44;10441869;28;20784;-65
2024/01/21 11:46:18;;;;;;;19.33;17.43;;;0.30;99.90;;;0.93;90.80;99113.69;10436577;28;20232;-65
2024/01/21 11:51:21;;;;;;;19.47;17.67;;;0.20;99.90;;;1.08;89.77;99133.03;10434306;28;20229;-65
2024/01/21 11:56:24;;;;;;;22.10;19.90;;;0.30;99.90;;;1.10;90.94;99134.13;10437848;28;20311;-65
2024/01/21 12:01:30;;;;;;;23.30;20.83;;;0.40;99.90;;;1.17;90.75;99141.63;10443194;28;20703;-65
2024/01/21 12:06:38;;;;;;;21.63;19.33;;;0.30;99.90;;;1.10;91.33;99137.53;10445044;28;20239;-65
2024/01/21 12:11:42;;;;;;;21.87;19.73;;;0.40;99.90;;;1.08;89.25;99133.94;10447988;28;20673;-65
2024/01/21 12:16:51;;;;;;;21.83;19.53;;;0.30;99.90;;;1.07;88.36;99114.53;10445012;28;20224;-65
2024/01/21 12:21:55;;;;;;;21.97;19.57;;;0.50;99.90;;;1.23;90.45;99108.69;10445241;28;20337;-65
2024/01/21 12:26:58;;;;;;;22.73;20.30;;;0.60;99.90;;;1.40;91.88;99096.38;10444824;28;20312;-65
2024/01/21 12:32:05;;;;;;;22.77;20.37;;;0.70;99.90;;;1.69;88.05;99082.00;10444159;28;20229;-64
2024/01/21 12:37:12;;;;;;;24.20;21.63;;;0.90;99.90;;;1.46;87.24;99076.94;10429592;28;20250;-64
2024/01/21 12:42:15;;;;;;;22.80;20.47;;;0.90;99.90;;;1.58;91.88;99064.81;10445839;28;20308;-64
2024/01/21 12:47:20;;;;;;;21.37;19.07;;;1.00;99.90;;;1.98;91.13;99043.97;10443342;28;20225;-65
2024/01/21 12:52:24;;;;;;;18.10;15.87;;;1.30;99.90;;;2.15;89.29;99029.06;10441913;28;20235;-64
2024/01/21 12:57:27;;;;;;;15.87;14.27;;;1.40;99.90;;;2.30;86.14;99014.69;10440299;28;20221;-65
2024/01/21 13:02:32;;;;;;;18.70;16.77;;;1.80;99.90;;;2.00;86.38;99023.25;10442630;28;20608;-65
2024/01/21 13:07:35;;;;;;;20.30;18.30;;;1.70;99.90;;;2.33;87.72;99030.13;10443032;28;20291;-65
2024/01/21 13:12:38;;;;;;;19.67;17.60;;;1.90;99.90;;;3.05;87.03;99027.69;10442623;28;20785;-67
2024/01/21 13:17:43;;;;;;;19.00;17.00;;;2.40;99.90;;;3.04;88.56;99018.31;10441985;28;20318;-65
2024/01/21 13:22:46;;;;;;;17.57;15.77;;;2.40;99.90;;;2.87;84.34;99010.63;10446992;28;20225;-66
2024/01/21 13:28:05;;;;;;;18.63;16.73;;;2.40;99.90;;;3.01;85.02;98991.88;10447323;28;20223;-65
2024/01/21 13:33:11;;;;;;;15.27;13.87;;;2.60;99.90;;;3.29;88.60;98975.38;10441572;28;20226;-64
2024/01/21 13:38:18;;;;;;;19.63;17.53;;;2.70;99.90;;;3.51;85.11;98974.31;10438071;28;20233;-65
2024/01/21 13:43:21;;;;;;;18.50;16.27;;;2.90;99.90;;;3.64;86.78;98978.13;10442241;28;20244;-65
2024/01/21 13:48:25;;;;;;;15.87;14.33;;;3.00;99.90;;;3.52;83.69;98966.03;10440994;28;20235;-66
2024/01/21 13:53:29;;;;;;;17.37;15.67;;;2.90;99.90;;;3.52;85.94;98983.72;10449444;28;20275;-66
2024/01/21 13:58:32;;;;;;;18.27;16.47;;;2.90;99.90;;;3.59;90.60;98965.91;10436057;28;20626;-66
2024/01/21 14:03:37;;;;;;;18.97;16.37;;;2.90;99.90;;;3.54;91.60;98968.69;10440565;28;20229;-66
2024/01/21 14:08:40;;;;;;;17.73;15.93;;;2.80;99.90;;;3.44;91.96;98986.19;10440923;28;21041;-66
2024/01/21 14:13:44;;;;;;;19.43;17.47;;;2.80;99.90;;;3.38;93.10;98981.41;10438982;28;20234;-64
2024/01/21 14:18:49;;;;;;;20.70;17.90;;;2.70;99.90;;;3.45;96.18;98983.81;10435733;28;20247;-64
2024/01/21 14:23:52;;;;;;;15.63;13.97;;;2.70;99.90;;;3.26;93.14;98992.75;10438477;28;20707;-65
2024/01/21 14:29:00;;;;;;;17.77;15.97;;;2.60;99.90;;;3.22;94.57;98989.03;10441060;28;20235;-64
2024/01/21 14:34:04;;;;;;;18.27;16.40;;;2.50;99.90;;;3.16;95.30;99003.56;10435518;28;20225;-64
2024/01/21 14:39:08;;;;;;;24.63;19.40;;;2.40;99.90;;;3.08;95.82;99009.44;10435848;28;20228;-65
2024/01/21 14:44:11;;;;;;;21.87;17.27;;;2.30;99.90;;;3.02;98.04;99009.69;10440891;28;20227;-65
2024/01/21 14:49:16;;;;;;;22.70;18.93;;;2.20;99.90;;;2.90;97.20;99008.41;10430758;28;20233;-64
2024/01/21 14:54:20;;;;;;;25.03;18.80;;;2.10;99.90;;;2.73;95.26;99010.78;10435702;28;20324;-65
2024/01/21 14:59:24;;;;;;;21.47;17.77;;;2.00;99.90;;;2.61;97.02;99012.91;10439049;28;20633;-66
2024/01/21 15:04:29;;;;;;;16.53;14.83;;;1.90;99.90;;;2.53;98.09;99013.72;10436874;28;20225;-65
2024/01/21 15:09:32;;;;;;;16.10;14.47;;;1.80;99.90;;;2.49;99.18;98999.88;10435357;28;20230;-65
2024/01/21 15:14:45;;;;;;;18.03;15.10;;;1.80;99.90;;;2.40;99.72;99006.47;10441606;28;20614;-65
2024/01/21 15:19:49;;;;;;;32.87;21.53;;;1.70;99.90;;;2.33;100.00;99007.44;10438148;28;20578;-65
2024/01/21 15:24:52;;;;;;;24.43;19.10;;;1.70;99.90;;;2.31;100.00;99010.53;10436992;28;20232;-65
2024/01/21 15:29:56;;;;;;;19.43;16.03;;;1.60;99.90;;;2.24;100.00;99019.06;10435372;28;20308;-65
2024/01/21 15:35:00;;;;;;;19.53;16.23;;;1.50;99.90;;;2.19;100.00;99012.63;10437556;28;20770;-65
2024/01/21 15:40:05;;;;;;;15.43;13.77;;;1.50;99.90;;;2.11;100.00;99001.69;10439120;28;20602;-66
2024/01/21 15:45:09;;;;;;;13.70;12.40;;;1.40;99.90;;;2.02;100.00;99023.41;10436397;28;20350;-65
2024/01/21 15:50:15;;;;;;;14.00;12.70;;;1.30;99.90;;;1.90;100.00;99017.94;10434065;28;20234;-66
2024/01/21 15:55:19;;;;;;;11.97;10.67;;;1.20;99.90;;;1.77;100.00;99018.22;10438104;28;20324;-66
2024/01/21 16:00:23;;;;;;;12.60;11.50;;;1.00;99.90;;;1.63;100.00;99020.88;10439036;28;20652;-66
2024/01/21 16:05:27;;;;;;;14.10;12.63;;;0.90;99.90;;;1.32;100.00;99029.16;10436487;28;20307;-65
2024/01/21 16:10:31;;;;;;;14.20;12.70;;;0.60;99.90;;;1.27;100.00;99036.19;10429948;28;20228;-66
2024/01/21 16:15:34;;;;;;;11.10;10.07;;;0.60;99.90;;;1.18;100.00;99042.72;10430377;28;20239;-65
2024/01/21 16:20:54;;;;;;;13.87;12.33;;;0.50;99.90;;;1.26;100.00;99046.09;10431950;28;20216;-65
2024/01/21 16:25:57;;;;;;;15.27;13.97;;;0.50;99.90;;;1.03;100.00;99035.94;10436816;28;20598;-65
2024/01/21 16:31:00;;;;;;;13.43;12.07;;;0.40;99.90;;;0.97;100.00;99053.78;10434681;28;20792;-65
2024/01/21 16:36:06;;;;;;;12.23;11.00;;;0.40;99.90;;;0.90;100.00;99047.16;10434256;28;20265;-63
2024/01/21 16:41:09;;;;;;;22.53;19.80;;;0.20;99.90;;;0.85;100.00;99053.28;10411208;28;20230;-64
2024/01/21 16:46:12;;;;;;;22.40;17.03;;;0.20;99.90;;;0.79;100.00;99056.75;10439052;28;20239;-65
2024/01/21 16:51:17;;;;;;;21.63;19.50;;;0.10;99.90;;;0.78;100.00;99063.41;10441252;28;20246;-66
2024/01/21 16:56:21;;;;;;;12.10;10.90;;;0.00;99.90;;;0.42;100.00;99065.09;10443794;28;20340;-66
2024/01/21 17:01:25;;;;;;;15.33;13.77;;;-0.10;99.90;;;0.39;100.00;99068.16;10443466;28;20249;-65
2024/01/21 17:06:31;;;;;;;18.77;15.23;;;-0.20;99.90;;;0.32;100.00;99074.84;10444810;28;20239;-65
2024/01/21 17:11:38;;;;;;;38.77;24.43;;;-0.20;99.90;;;0.28;100.00;99063.50;10444417;28;20225;-65
2024/01/21 17:16:42;;;;;;;24.77;16.87;;;-0.30;99.90;;;0.26;100.00;99062.44;10441396;28;20238;-65
2024/01/21 17:21:47;;;;;;;19.80;14.73;;;-0.40;99.90;;;0.30;100.00;99057.03;10442817;28;20236;-65
2024/01/21 17:26:54;;;;;;;16.80;13.70;;;-0.40;99.90;;;0.21;100.00;99056.00;10448898;28;20361;-65
2024/01/21 17:31:57;;;;;;;10.57;9.50;;;-0.40;99.90;;;0.10;100.00;99061.38;10436182;28;20234;-66
2024/01/21 17:37:02;;;;;;;13.23;11.93;;;-0.50;99.90;;;0.19;100.00;99069.97;10436603;28;20236;-66
2024/01/21 17:42:07;;;;;;;14.57;12.87;;;-0.40;99.90;;;0.09;100.00;99062.13;10439914;28;20314;-65
2024/01/21 17:47:11;;;;;;;15.03;13.53;;;-0.50;99.90;;;0.05;100.00;99065.84;10433098;28;20712;-64
2024/01/21 17:52:16;;;;;;;18.67;16.17;;;-0.60;99.90;;;0.02;100.00;99059.59;10434581;28;20229;-65
2024/01/21 17:57:19;;;;;;;21.23;18.10;;;-0.60;99.90;;;-0.03;100.00;99054.00;10435812;28;20230;-65
2024/01/21 18:02:22;;;;;;;26.20;19.33;;;-0.70;99.90;;;-0.07;100.00;99065.31;10436634;28;20239;-65
2024/01/21 18:07:26;;;;;;;31.47;24.03;;;-0.70;99.90;;;-0.08;100.00;99070.19;10440130;28;20576;-65
2024/01/21 18:12:30;;;;;;;23.97;20.03;;;-0.70;99.90;;;-0.15;100.00;99082.72;10442784;28;20268;-65
2024/01/21 18:17:33;;;;;;;22.67;19.23;;;-0.80;99.90;;;-0.18;100.00;99083.25;10434443;28;20268;-64
2024/01/21 18:22:38;;;;;;;20.03;17.20;;;-0.80;99.90;;;-0.24;100.00;99083.44;10427308;28;20312;-65
2024/01/21 18:27:41;;;;;;;21.13;18.80;;;-0.90;99.90;;;-0.24;100.00;99097.63;10431466;28;20319;-65
2024/01/21 18:32:46;;;;;;;23.17;20.43;;;-0.90;99.90;;;-0.12;100.00;99095.66;10430890;28;20240;-65
2024/01/21 18:37:51;;;;;;;21.93;19.40;;;-0.80;99.90;;;0.04;100.00;99095.84;10427825;28;20233;-65
2024/01/21 18:42:54;;;;;;;25.23;22.53;;;-0.60;99.90;;;0.22;100.00;99103.00;10434014;28;20225;-65
2024/01/21 18:48:00;;;;;;;26.57;21.93;;;-0.50;99.90;;;0.24;100.00;99090.66;10431231;28;20229;-65
2024/01/21 18:53:05;;;;;;;24.03;20.40;;;-0.40;99.90;;;0.19;100.00;99088.47;10435776;28;20226;-65
2024/01/21 18:58:08;;;;;;;29.07;26.07;;;-0.40;99.90;;;0.13;100.00;99086.88;10430815;28;20240;-66
2024/01/21 19:03:23;;;;;;;22.10;19.87;;;-0.50;99.90;;;0.10;100.00;99077.34;10438232;28;20229;-65
2024/01/21 19:08:27;;;;;;;20.00;17.63;;;-0.50;99.90;;;0.07;100.00;99066.94;10440144;28;20221;-65
2024/01/21 19:13:30;;;;;;;17.73;15.93;;;-0.60;99.90;;;-0.01;100.00;99067.66;10429666;28;22138;-65
2024/01/21 19:18:34;;;;;;;18.13;15.60;;;-0.70;99.90;;;-0.06;100.00;99068.72;10432317;28;20810;-65
2024/01/21 19:23:39;;;;;;;19.97;17.87;;;-0.70;99.90;;;-0.13;100.00;99073.78;10432122;28;20244;-65
2024/01/21 19:28:44;;;;;;;19.10;16.97;;;-0.80;99.90;;;-0.20;100.00;99069.66;10434340;28;20233;-64
2024/01/21 19:33:48;;;;;;;15.73;14.03;;;-0.90;99.90;;;-0.31;100.00;99057.44;10433106;28;20244;-64
2024/01/21 19:38:54;;;;;;;30.73;18.83;;;-1.00;99.90;;;-0.52;100.00;99041.59;10424442;28;20868;-64
2024/01/21 19:43:57;;;;;;;54.40;27.63;;;-1.10;99.90;;;-0.48;100.00;99031.22;10428135;28;20224;-65
2024/01/21 19:49:00;;;;;;;17.67;15.77;;;-1.10;99.90;;;-0.54;100.00;99014.56;10429920;28;20288;-65
2024/01/21 19:54:06;;;;;;;13.97;12.67;;;-1.20;99.90;;;-0.62;100.00;99008.63;10436514;28;20327;-66
2024/01/21 19:59:09;;;;;;;11.67;10.47;;;-1.20;99.90;;;-0.55;100.00;99002.69;10432361;28;20228;-65
2024/01/21 20:04:13;;;;;;;15.90;13.40;;;-1.30;99.90;;;-0.87;100.00;99007.31;10430032;28;20313;-65
2024/01/21 20:09:21;;;;;;;20.37;18.37;;;-1.40;99.90;;;-0.81;100.00;99013.06;10428165;28;20229;-65
2024/01/21 20:14:24;;;;;;;19.10;14.27;;;-1.40;99.90;;;-0.58;100.00;98995.69;10426724;28;20308;-64
2024/01/21 20:19:27;;;;;;;20.03;15.50;;;-1.30;99.90;;;-0.68;100.00;98996.22;10427299;28;20232;-64
2024/01/21 20:24:32;;;;;;;17.57;15.13;;;-1.30;99.90;;;-0.62;100.00;98991.03;10427337;28;20795;-64
2024/01/21 20:29:36;;;;;;;12.27;11.07;;;-1.20;99.90;;;-0.51;100.00;98985.66;10422407;28;20589;-64
2024/01/21 20:34:40;;;;;;;16.73;14.27;;;-1.00;99.90;;;-0.43;100.00;98988.16;10437191;28;20712;-66
2024/01/21 20:39:45;;;;;;;16.30;14.47;;;-0.90;99.90;;;-0.05;100.00;98973.44;10442540;28;20237;-65
2024/01/21 20:44:48;;;;;;;12.77;11.47;;;-0.70;99.90;;;-0.20;100.00;98969.16;10437430;28;20701;-65
2024/01/21 20:49:51;;;;;;;14.40;12.93;;;-0.80;99.90;;;-0.32;100.00;98952.66;10441729;28;20223;-66